Time;durP1;ratioP1;P1;durP2;ratioP2;P2;SDS_P1;SDS_P2;PMS_P1;PMS_P2;Temp;Humidity;BMP_temperature;BMP_pressure;BME280_temperature;BME280_humidity;BME280_pressure;Samples;Min_cycle;Max_cycle;Signal;HPM_P1;HPM_P2
2024/02/26 00:01:40;;;;;;;14.53;9.53;;;;;;;;;;5028835;28;20241;-77
2024/02/26 00:04:08;;;;;;;13.83;10.03;;;;;;;;;;5040825;28;20186;-76
2024/02/26 00:06:34;;;;;;;15.87;9.27;;;;;;;;;;5038116;28;20178;-77
2024/02/26 00:09:00;;;;;;;14.43;10.00;;;;;;;;;;5041580;28;20186;-76
2024/02/26 00:11:26;;;;;;;13.40;9.03;;;;;;;;;;5011594;28;20570;-76
2024/02/26 00:13:51;;;;;;;14.57;9.23;;;;;;;;;;5033049;28;20199;-76
2024/02/26 00:16:16;;;;;;;13.37;8.73;;;;;;;;;;5024423;28;20222;-77
2024/02/26 00:18:42;;;;;;;11.80;8.53;;;;;;;;;;5024105;28;20244;-77
2024/02/26 00:21:07;;;;;;;12.43;8.73;;;;;;;;;;5042202;28;20200;-76
2024/02/26 00:23:33;;;;;;;12.57;8.63;;;;;;;;;;5043281;28;20190;-76
2024/02/26 00:25:58;;;;;;;12.70;9.17;;;;;;;;;;5038939;28;20497;-75
2024/02/26 00:28:29;;;;;;;13.80;8.57;;;;;;;;;;5047356;28;20189;-77
2024/02/26 00:30:55;;;;;;;14.07;8.80;;;;;;;;;;5014237;28;20197;-76
2024/02/26 00:33:22;;;;;;;10.70;7.87;;;;;;;;;;5013586;28;20181;-76
2024/02/26 00:35:48;;;;;;;11.57;8.13;;;;;;;;;;5035769;28;20215;-77
2024/02/26 00:38:14;;;;;;;11.90;8.50;;;;;;;;;;5024727;28;20189;-76
2024/02/26 00:40:40;;;;;;;12.60;8.73;;;;;;;;;;5030307;28;20190;-77
2024/02/26 00:43:06;;;;;;;11.30;7.63;;;;;;;;;;5040385;28;20190;-76
2024/02/26 00:45:32;;;;;;;11.10;8.27;;;;;;;;;;5029377;28;20186;-76
2024/02/26 00:47:58;;;;;;;11.13;7.73;;;;;;;;;;5029722;28;20581;-76
2024/02/26 00:50:24;;;;;;;11.70;7.70;;;;;;;;;;5036133;28;20218;-76
2024/02/26 00:52:49;;;;;;;10.00;6.93;;;;;;;;;;5030237;28;20241;-76
2024/02/26 00:55:15;;;;;;;12.73;7.63;;;;;;;;;;5026605;28;20220;-76
2024/02/26 00:57:40;;;;;;;12.70;8.07;;;;;;;;;;5016084;28;20212;-76
2024/02/26 01:00:08;;;;;;;13.53;8.23;;;;;;;;;;5031159;28;20205;-76
2024/02/26 01:02:34;;;;;;;11.47;8.07;;;;;;;;;;5015740;28;20606;-75
2024/02/26 01:04:59;;;;;;;12.73;8.13;;;;;;;;;;5015815;28;20205;-76
2024/02/26 01:07:25;;;;;;;12.53;8.10;;;;;;;;;;5022126;28;20268;-75
2024/02/26 01:09:50;;;;;;;13.00;7.83;;;;;;;;;;5016732;28;20285;-75
2024/02/26 01:12:16;;;;;;;11.67;7.17;;;;;;;;;;5023911;28;20197;-75
2024/02/26 01:14:41;;;;;;;11.90;8.03;;;;;;;;;;5040626;28;20572;-75
2024/02/26 01:17:06;;;;;;;11.20;7.60;;;;;;;;;;5029742;28;20262;-75
2024/02/26 01:19:32;;;;;;;15.03;7.70;;;;;;;;;;5031763;28;20226;-75
2024/02/26 01:21:57;;;;;;;10.03;7.00;;;;;;;;;;5028337;28;20194;-76
2024/02/26 01:24:23;;;;;;;11.60;8.03;;;;;;;;;;5034916;28;20208;-76
2024/02/26 01:26:48;;;;;;;12.43;7.97;;;;;;;;;;5034974;28;20189;-75
2024/02/26 01:29:14;;;;;;;12.53;7.83;;;;;;;;;;5032065;28;20227;-77
2024/02/26 01:31:39;;;;;;;13.57;8.00;;;;;;;;;;5013909;28;20663;-76
2024/02/26 01:34:04;;;;;;;12.33;8.20;;;;;;;;;;5023964;28;20204;-76
2024/02/26 01:36:30;;;;;;;12.20;7.77;;;;;;;;;;5035858;28;20194;-77
2024/02/26 01:38:55;;;;;;;16.90;8.17;;;;;;;;;;5033256;28;20188;-77
2024/02/26 01:41:21;;;;;;;13.97;8.90;;;;;;;;;;5034629;28;20205;-77
2024/02/26 01:43:46;;;;;;;14.07;8.47;;;;;;;;;;5026825;28;20194;-77
2024/02/26 01:46:14;;;;;;;11.60;8.63;;;;;;;;;;5034171;28;20226;-77
2024/02/26 01:48:43;;;;;;;11.10;7.90;;;;;;;;;;5026641;28;20190;-77
2024/02/26 01:51:10;;;;;;;17.17;8.83;;;;;;;;;;5036591;28;20186;-77
2024/02/26 01:53:36;;;;;;;11.80;8.13;;;;;;;;;;5035034;28;20250;-77
2024/02/26 01:56:02;;;;;;;13.63;8.60;;;;;;;;;;5035759;28;20205;-77
2024/02/26 01:58:30;;;;;;;12.83;8.10;;;;;;;;;;5041601;28;20196;-77
2024/02/26 02:00:55;;;;;;;13.97;8.83;;;;;;;;;;5039211;28;20196;-77
2024/02/26 02:03:21;;;;;;;11.27;7.73;;;;;;;;;;5044915;28;20237;-77
2024/02/26 02:05:47;;;;;;;12.77;7.53;;;;;;;;;;5035600;28;20714;-77
2024/02/26 02:08:14;;;;;;;11.87;8.00;;;;;;;;;;5039085;28;20277;-77
2024/02/26 02:10:40;;;;;;;13.13;8.03;;;;;;;;;;5028141;28;20262;-77
2024/02/26 02:13:06;;;;;;;12.13;8.37;;;;;;;;;;5030624;28;20557;-77
2024/02/26 02:15:31;;;;;;;12.10;7.53;;;;;;;;;;5012695;28;20225;-77
2024/02/26 02:17:57;;;;;;;11.43;8.17;;;;;;;;;;5044184;28;20225;-77
2024/02/26 02:20:33;;;;;;;11.70;8.07;;;;;;;;;;5029318;28;20233;-77
2024/02/26 02:22:59;;;;;;;11.23;8.10;;;;;;;;;;5040451;28;20196;-77
2024/02/26 02:25:24;;;;;;;14.10;7.80;;;;;;;;;;5022580;28;20183;-77
2024/02/26 02:27:51;;;;;;;9.77;7.67;;;;;;;;;;5024859;28;20199;-76
2024/02/26 02:30:17;;;;;;;11.77;7.77;;;;;;;;;;5028032;28;20653;-77
2024/02/26 02:32:43;;;;;;;10.43;7.20;;;;;;;;;;5037557;28;20185;-77
2024/02/26 02:35:09;;;;;;;12.73;7.30;;;;;;;;;;5027832;28;20214;-77
2024/02/26 02:37:34;;;;;;;11.20;7.83;;;;;;;;;;4999026;28;20190;-77
2024/02/26 02:40:00;;;;;;;11.10;7.63;;;;;;;;;;5032156;28;20197;-77
2024/02/26 02:42:26;;;;;;;11.27;7.70;;;;;;;;;;5038169;28;20330;-76
2024/02/26 02:44:51;;;;;;;11.67;7.97;;;;;;;;;;5022201;28;20835;-76
2024/02/26 02:47:18;;;;;;;10.60;7.87;;;;;;;;;;5032295;28;20194;-76
2024/02/26 02:49:44;;;;;;;12.33;7.90;;;;;;;;;;5024593;28;20216;-77
2024/02/26 02:52:09;;;;;;;12.97;7.80;;;;;;;;;;5038135;28;20201;-76
2024/02/26 02:54:36;;;;;;;12.77;8.27;;;;;;;;;;5025859;28;20213;-77
2024/02/26 02:57:03;;;;;;;13.43;7.83;;;;;;;;;;5035768;28;20200;-76
2024/02/26 02:59:28;;;;;;;12.20;7.60;;;;;;;;;;5029903;28;20182;-77
2024/02/26 03:01:53;;;;;;;11.73;7.77;;;;;;;;;;5008363;28;20274;-77
2024/02/26 03:04:19;;;;;;;11.13;8.17;;;;;;;;;;5035549;28;20215;-77
2024/02/26 03:06:44;;;;;;;14.97;8.37;;;;;;;;;;5042090;28;20193;-76
2024/02/26 03:09:10;;;;;;;11.43;7.73;;;;;;;;;;5016726;28;20205;-77
2024/02/26 03:11:35;;;;;;;11.80;7.80;;;;;;;;;;5032851;28;20196;-77
2024/02/26 03:14:01;;;;;;;12.90;8.20;;;;;;;;;;5019495;28;20197;-77
2024/02/26 03:16:27;;;;;;;12.17;7.73;;;;;;;;;;5018797;28;20339;-77
2024/02/26 03:18:53;;;;;;;12.70;8.10;;;;;;;;;;5027367;28;20340;-77
2024/02/26 03:21:18;;;;;;;11.40;8.03;;;;;;;;;;5028031;28;20196;-77
2024/02/26 03:23:44;;;;;;;12.37;8.10;;;;;;;;;;5029449;28;20185;-77
2024/02/26 03:26:13;;;;;;;11.13;7.73;;;;;;;;;;5029940;28;20202;-77
2024/02/26 03:28:40;;;;;;;9.93;6.43;;;;;;;;;;5035226;28;20288;-77
2024/02/26 03:31:06;;;;;;;11.13;7.23;;;;;;;;;;5012946;28;20273;-77
2024/02/26 03:33:31;;;;;;;9.40;7.10;;;;;;;;;;5037176;28;20192;-77
2024/02/26 03:35:57;;;;;;;11.03;7.57;;;;;;;;;;5038612;28;20221;-77
2024/02/26 03:38:22;;;;;;;11.97;8.00;;;;;;;;;;5020383;28;20195;-77
2024/02/26 03:40:47;;;;;;;10.20;7.37;;;;;;;;;;5013697;28;20538;-77
2024/02/26 03:43:13;;;;;;;10.57;7.43;;;;;;;;;;5017618;28;20201;-77
2024/02/26 03:45:39;;;;;;;12.90;7.30;;;;;;;;;;5022727;28;20196;-77
2024/02/26 03:48:05;;;;;;;11.27;7.10;;;;;;;;;;5026434;28;20189;-77
2024/02/26 03:50:32;;;;;;;11.47;6.87;;;;;;;;;;5032999;28;20205;-77
2024/02/26 03:52:57;;;;;;;9.40;6.77;;;;;;;;;;5032162;28;20190;-77
2024/02/26 03:55:24;;;;;;;8.33;6.40;;;;;;;;;;5029095;28;20225;-76
2024/02/26 03:57:53;;;;;;;8.60;6.60;;;;;;;;;;5030737;28;20300;-76
2024/02/26 04:00:19;;;;;;;8.20;5.90;;;;;;;;;;5005457;28;20190;-76
2024/02/26 04:02:47;;;;;;;12.13;6.13;;;;;;;;;;5022912;28;20273;-76
2024/02/26 04:05:13;;;;;;;10.53;6.43;;;;;;;;;;5040807;28;20649;-75
2024/02/26 04:07:39;;;;;;;7.73;5.83;;;;;;;;;;5027637;28;20190;-75
2024/02/26 04:10:09;;;;;;;8.57;6.27;;;;;;;;;;5023781;28;20672;-75
2024/02/26 04:12:34;;;;;;;7.70;5.50;;;;;;;;;;5024440;28;20194;-75
2024/02/26 04:15:00;;;;;;;7.43;5.20;;;;;;;;;;5029880;28;20220;-75
2024/02/26 04:17:25;;;;;;;8.27;5.93;;;;;;;;;;5030142;28;20220;-75
2024/02/26 04:19:51;;;;;;;8.57;6.07;;;;;;;;;;5031938;28;20253;-76
2024/02/26 04:22:16;;;;;;;9.33;5.70;;;;;;;;;;5028809;28;20646;-76
2024/02/26 04:24:42;;;;;;;7.83;6.10;;;;;;;;;;5026631;28;20664;-76
2024/02/26 04:27:08;;;;;;;7.30;5.30;;;;;;;;;;5028557;28;20201;-76
2024/02/26 04:29:33;;;;;;;10.07;6.80;;;;;;;;;;5030744;28;20198;-76
2024/02/26 04:31:58;;;;;;;9.53;6.50;;;;;;;;;;5051736;28;20558;-75
2024/02/26 04:34:25;;;;;;;11.63;6.93;;;;;;;;;;5027290;28;20653;-75
2024/02/26 04:36:51;;;;;;;8.63;6.03;;;;;;;;;;5035894;28;20194;-75
2024/02/26 04:39:16;;;;;;;8.53;6.43;;;;;;;;;;5039312;28;20282;-75
2024/02/26 04:41:41;;;;;;;10.23;6.80;;;;;;;;;;5025925;28;20190;-75
2024/02/26 04:44:07;;;;;;;9.60;7.43;;;;;;;;;;5039282;28;20218;-75
2024/02/26 04:46:32;;;;;;;9.87;6.80;;;;;;;;;;5043259;28;20186;-75
2024/02/26 04:48:58;;;;;;;10.07;7.33;;;;;;;;;;5023751;28;20502;-75
2024/02/26 04:51:24;;;;;;;12.90;7.43;;;;;;;;;;5013831;28;20193;-76
2024/02/26 04:53:49;;;;;;;10.10;6.90;;;;;;;;;;5032873;28;20208;-75
2024/02/26 04:56:14;;;;;;;8.47;6.37;;;;;;;;;;5030422;28;20224;-75
2024/02/26 04:58:40;;;;;;;14.10;7.10;;;;;;;;;;5019928;28;20221;-75
2024/02/26 05:01:05;;;;;;;9.63;6.63;;;;;;;;;;5028482;28;20217;-75
2024/02/26 05:03:31;;;;;;;10.40;7.07;;;;;;;;;;5019945;28;20199;-76
2024/02/26 05:05:57;;;;;;;9.70;6.87;;;;;;;;;;5031444;28;20181;-75
2024/02/26 05:08:23;;;;;;;10.67;7.97;;;;;;;;;;5014744;28;20653;-76
2024/02/26 05:10:49;;;;;;;11.00;6.80;;;;;;;;;;5023999;28;20229;-76
2024/02/26 05:13:17;;;;;;;11.20;7.03;;;;;;;;;;5019360;28;20221;-77
2024/02/26 05:15:43;;;;;;;9.60;7.10;;;;;;;;;;5012028;28;20202;-76
2024/02/26 05:18:08;;;;;;;9.40;6.70;;;;;;;;;;5026325;28;20212;-76
2024/02/26 05:20:35;;;;;;;10.30;7.13;;;;;;;;;;5024249;28;20198;-76
2024/02/26 05:23:01;;;;;;;10.77;7.03;;;;;;;;;;5034124;28;20193;-76
2024/02/26 05:25:27;;;;;;;10.43;7.50;;;;;;;;;;5028559;28;20578;-76
2024/02/26 05:27:52;;;;;;;11.97;7.90;;;;;;;;;;5024268;28;20275;-76
2024/02/26 05:30:18;;;;;;;13.00;8.40;;;;;;;;;;5028879;28;20194;-76
2024/02/26 05:32:43;;;;;;;12.13;8.23;;;;;;;;;;5025066;28;20195;-76
2024/02/26 05:35:08;;;;;;;9.13;7.00;;;;;;;;;;5030413;28;20217;-75
2024/02/26 05:37:34;;;;;;;13.33;8.33;;;;;;;;;;5023431;28;20606;-75
2024/02/26 05:39:59;;;;;;;12.07;8.40;;;;;;;;;;5043454;28;20448;-75
2024/02/26 05:42:25;;;;;;;11.87;8.10;;;;;;;;;;5024350;28;20547;-75
2024/02/26 05:44:50;;;;;;;12.03;8.37;;;;;;;;;;5008447;28;20235;-75
2024/02/26 05:47:17;;;;;;;13.53;8.57;;;;;;;;;;5019159;28;20563;-75
2024/02/26 05:49:42;;;;;;;12.07;8.60;;;;;;;;;;5033745;28;20229;-76
2024/02/26 05:52:08;;;;;;;14.30;9.63;;;;;;;;;;5010830;28;20222;-75
2024/02/26 05:54:33;;;;;;;16.57;9.70;;;;;;;;;;5033321;28;20301;-75
2024/02/26 05:56:59;;;;;;;13.03;9.27;;;;;;;;;;5042609;28;20234;-75
2024/02/26 05:59:24;;;;;;;13.33;9.60;;;;;;;;;;5048711;28;20254;-75
2024/02/26 06:01:50;;;;;;;15.53;10.30;;;;;;;;;;5046651;28;20202;-75
2024/02/26 06:04:17;;;;;;;14.20;10.13;;;;;;;;;;5026333;28;20197;-75
2024/02/26 06:06:42;;;;;;;15.00;10.00;;;;;;;;;;5029909;28;20208;-76
2024/02/26 06:09:08;;;;;;;16.50;10.50;;;;;;;;;;5033101;28;20633;-75
2024/02/26 06:11:33;;;;;;;20.13;10.77;;;;;;;;;;5036119;28;20193;-75
2024/02/26 06:13:59;;;;;;;15.53;10.30;;;;;;;;;;5021623;28;20269;-75
2024/02/26 06:16:24;;;;;;;16.20;10.90;;;;;;;;;;5019169;28;20662;-76
2024/02/26 06:18:50;;;;;;;16.63;11.40;;;;;;;;;;5017375;28;20678;-76
2024/02/26 06:21:15;;;;;;;18.27;11.20;;;;;;;;;;5000347;28;20198;-76
2024/02/26 06:23:41;;;;;;;17.37;11.57;;;;;;;;;;5022541;28;20527;-75
2024/02/26 06:26:06;;;;;;;16.30;11.53;;;;;;;;;;5024145;28;20659;-75
2024/02/26 06:28:33;;;;;;;18.13;11.50;;;;;;;;;;5031846;28;20313;-75
2024/02/26 06:30:59;;;;;;;19.87;12.17;;;;;;;;;;5021882;28;20214;-75
2024/02/26 06:33:24;;;;;;;19.17;13.00;;;;;;;;;;5025142;28;20229;-75
2024/02/26 06:35:50;;;;;;;18.43;12.53;;;;;;;;;;5019979;28;20655;-75
2024/02/26 06:38:16;;;;;;;21.63;13.00;;;;;;;;;;5019240;28;20194;-75
2024/02/26 06:40:41;;;;;;;19.63;11.90;;;;;;;;;;5021270;28;20186;-75
2024/02/26 06:43:07;;;;;;;20.57;13.70;;;;;;;;;;5009225;28;20708;-76
2024/02/26 06:45:32;;;;;;;19.80;13.10;;;;;;;;;;5035448;28;20743;-75
2024/02/26 06:47:58;;;;;;;20.07;13.80;;;;;;;;;;5007124;28;20182;-75
2024/02/26 06:50:23;;;;;;;19.70;13.30;;;;;;;;;;5034302;28;20205;-75
2024/02/26 06:52:49;;;;;;;24.47;14.00;;;;;;;;;;5042441;28;20240;-75
2024/02/26 06:55:14;;;;;;;21.90;14.43;;;;;;;;;;5026395;28;20222;-75
2024/02/26 06:57:40;;;;;;;21.03;13.83;;;;;;;;;;5047096;28;20193;-75
2024/02/26 07:00:06;;;;;;;21.73;13.47;;;;;;;;;;5045395;28;20196;-75
2024/02/26 07:02:31;;;;;;;23.50;14.63;;;;;;;;;;5038416;28;20502;-75
2024/02/26 07:04:58;;;;;;;22.77;13.90;;;;;;;;;;5024985;28;20240;-76
2024/02/26 07:07:24;;;;;;;20.87;14.10;;;;;;;;;;5027580;28;20206;-76
2024/02/26 07:09:49;;;;;;;24.30;13.93;;;;;;;;;;5033726;28;20185;-76
2024/02/26 07:12:16;;;;;;;23.10;13.63;;;;;;;;;;5030188;28;20727;-75
2024/02/26 07:14:42;;;;;;;23.03;14.47;;;;;;;;;;5032617;28;20654;-77
2024/02/26 07:17:08;;;;;;;21.63;13.40;;;;;;;;;;5029252;28;20193;-75
2024/02/26 07:19:33;;;;;;;19.50;13.10;;;;;;;;;;5028535;28;20229;-75
2024/02/26 07:22:01;;;;;;;23.10;13.57;;;;;;;;;;5035869;28;20664;-76
2024/02/26 07:24:27;;;;;;;20.27;12.93;;;;;;;;;;5013066;28;20195;-75
2024/02/26 07:26:55;;;;;;;20.93;12.70;;;;;;;;;;5025327;28;20192;-75
2024/02/26 07:29:20;;;;;;;21.47;13.33;;;;;;;;;;5024489;28;21057;-75
2024/02/26 07:31:47;;;;;;;20.13;12.17;;;;;;;;;;5031206;28;20513;-75
2024/02/26 07:34:12;;;;;;;19.93;12.80;;;;;;;;;;5009722;28;20178;-75
2024/02/26 07:36:37;;;;;;;19.43;12.47;;;;;;;;;;5029475;28;20216;-75
2024/02/26 07:39:03;;;;;;;22.20;12.13;;;;;;;;;;5011971;28;20427;-75
2024/02/26 07:41:28;;;;;;;21.03;12.20;;;;;;;;;;5040504;28;20416;-75
2024/02/26 07:43:54;;;;;;;21.30;12.30;;;;;;;;;;5033676;28;20217;-74
2024/02/26 07:46:19;;;;;;;18.83;11.43;;;;;;;;;;5032420;28;20599;-75
2024/02/26 07:48:45;;;;;;;19.80;12.17;;;;;;;;;;5033894;28;20623;-76
2024/02/26 07:51:13;;;;;;;19.47;12.13;;;;;;;;;;5028763;28;20690;-75
2024/02/26 07:53:38;;;;;;;21.47;12.00;;;;;;;;;;5014707;28;20250;-76
2024/02/26 07:56:04;;;;;;;18.17;10.70;;;;;;;;;;5030851;28;20634;-75
2024/02/26 07:58:29;;;;;;;20.20;12.40;;;;;;;;;;5009128;28;20193;-75
2024/02/26 08:00:55;;;;;;;20.43;11.87;;;;;;;;;;5028571;28;20273;-74
2024/02/26 08:03:21;;;;;;;20.97;11.73;;;;;;;;;;5023417;28;20677;-75
2024/02/26 08:05:46;;;;;;;19.63;11.43;;;;;;;;;;5044185;28;20193;-74
2024/02/26 08:08:12;;;;;;;24.60;13.60;;;;;;;;;;5043390;28;20194;-75
2024/02/26 08:10:37;;;;;;;21.47;12.33;;;;;;;;;;5029272;28;20205;-75
2024/02/26 08:13:05;;;;;;;24.90;13.13;;;;;;;;;;5036797;28;20192;-76
2024/02/26 08:15:32;;;;;;;23.33;12.53;;;;;;;;;;5036290;28;20732;-76
2024/02/26 08:17:58;;;;;;;23.93;13.80;;;;;;;;;;5034931;28;20217;-75
2024/02/26 08:20:23;;;;;;;22.73;12.80;;;;;;;;;;5028676;28;20307;-75
2024/02/26 08:22:49;;;;;;;25.60;13.73;;;;;;;;;;5030898;28;20282;-76
2024/02/26 08:25:15;;;;;;;25.57;12.53;;;;;;;;;;5034187;28;20186;-75
2024/02/26 08:27:41;;;;;;;25.87;14.20;;;;;;;;;;5047469;28;20637;-75
2024/02/26 08:30:07;;;;;;;22.00;12.50;;;;;;;;;;5039746;28;20181;-74
2024/02/26 08:32:33;;;;;;;22.70;12.97;;;;;;;;;;5038371;28;20748;-76
2024/02/26 08:34:58;;;;;;;24.77;14.23;;;;;;;;;;5041359;28;20244;-75
2024/02/26 08:37:24;;;;;;;25.60;14.23;;;;;;;;;;5031911;28;20256;-75
2024/02/26 08:39:49;;;;;;;23.73;14.20;;;;;;;;;;5045360;28;20653;-75
2024/02/26 08:42:15;;;;;;;25.97;14.73;;;;;;;;;;5003245;28;20193;-74
2024/02/26 08:44:40;;;;;;;29.83;14.07;;;;;;;;;;5039664;28;20190;-74
2024/02/26 08:47:05;;;;;;;26.67;13.73;;;;;;;;;;5033044;28;20409;-74
2024/02/26 08:49:31;;;;;;;24.10;14.47;;;;;;;;;;5043932;28;20520;-76
2024/02/26 08:51:56;;;;;;;23.87;14.03;;;;;;;;;;5011469;28;20174;-74
2024/02/26 08:54:22;;;;;;;26.93;14.70;;;;;;;;;;5034896;28;20193;-75
2024/02/26 08:56:47;;;;;;;24.27;14.30;;;;;;;;;;5036206;28;20193;-75
2024/02/26 08:59:16;;;;;;;24.03;14.17;;;;;;;;;;5038336;28;20223;-75
2024/02/26 09:01:41;;;;;;;29.13;15.87;;;;;;;;;;5031504;28;20197;-76
2024/02/26 09:04:07;;;;;;;26.13;14.53;;;;;;;;;;5046753;28;20188;-75
2024/02/26 09:06:32;;;;;;;25.13;14.17;;;;;;;;;;5017905;28;20646;-75
2024/02/26 09:08:58;;;;;;;27.37;15.23;;;;;;;;;;5029569;28;20212;-75
2024/02/26 09:11:23;;;;;;;23.47;13.93;;;;;;;;;;5035900;28;20190;-75
2024/02/26 09:13:48;;;;;;;24.53;14.10;;;;;;;;;;5033964;28;20550;-75
2024/02/26 09:16:14;;;;;;;25.20;14.77;;;;;;;;;;5028171;28;20207;-75
2024/02/26 09:18:39;;;;;;;23.80;14.07;;;;;;;;;;5030663;28;20231;-74
2024/02/26 09:21:08;;;;;;;23.83;13.87;;;;;;;;;;5031665;28;20194;-75
2024/02/26 09:23:34;;;;;;;22.53;13.77;;;;;;;;;;5024096;28;20197;-75
2024/02/26 09:26:00;;;;;;;24.87;13.70;;;;;;;;;;5030572;28;20189;-75
2024/02/26 09:28:26;;;;;;;23.30;14.17;;;;;;;;;;5027966;28;20186;-76
2024/02/26 09:30:51;;;;;;;22.73;13.40;;;;;;;;;;5039776;28;20252;-76
2024/02/26 09:33:19;;;;;;;24.63;13.73;;;;;;;;;;5028670;28;20186;-76
2024/02/26 09:35:45;;;;;;;21.50;13.47;;;;;;;;;;5029345;28;20696;-75
2024/02/26 09:38:10;;;;;;;20.07;13.17;;;;;;;;;;5035908;28;20218;-75
2024/02/26 09:40:37;;;;;;;22.70;13.30;;;;;;;;;;5035505;28;20190;-75
2024/02/26 09:43:05;;;;;;;24.30;13.30;;;;;;;;;;5011461;28;20507;-75
2024/02/26 09:45:34;;;;;;;23.47;13.50;;;;;;;;;;5034380;28;20181;-74
2024/02/26 09:48:02;;;;;;;24.97;14.50;;;;;;;;;;5028499;28;20276;-74
2024/02/26 09:50:28;;;;;;;20.23;12.97;;;;;;;;;;5030796;28;20609;-74
2024/02/26 09:52:54;;;;;;;19.90;12.87;;;;;;;;;;5033557;28;20249;-76
2024/02/26 09:55:20;;;;;;;22.40;12.20;;;;;;;;;;5013406;28;20213;-75
2024/02/26 09:57:48;;;;;;;21.10;13.00;;;;;;;;;;5033796;28;20193;-75
2024/02/26 10:00:19;;;;;;;20.17;12.37;;;;;;;;;;5035159;28;20555;-75
2024/02/26 10:02:46;;;;;;;20.37;13.07;;;;;;;;;;5035756;28;20178;-76
2024/02/26 10:05:14;;;;;;;20.90;12.53;;;;;;;;;;5036625;28;20194;-75
2024/02/26 10:07:40;;;;;;;17.07;11.20;;;;;;;;;;5019070;28;20265;-74
2024/02/26 10:10:07;;;;;;;22.40;11.83;;;;;;;;;;5028449;28;20269;-75
2024/02/26 10:12:33;;;;;;;20.70;10.50;;;;;;;;;;5037569;28;20307;-75
2024/02/26 10:14:58;;;;;;;19.07;11.67;;;;;;;;;;5024647;28;20293;-75
2024/02/26 10:17:25;;;;;;;17.40;11.53;;;;;;;;;;5000749;28;20579;-75
2024/02/26 10:19:51;;;;;;;15.93;10.70;;;;;;;;;;5036019;28;20232;-75
2024/02/26 10:22:17;;;;;;;16.00;10.30;;;;;;;;;;5019420;28;20197;-75
2024/02/26 10:24:42;;;;;;;17.30;10.47;;;;;;;;;;5017524;28;20545;-75
2024/02/26 10:27:08;;;;;;;14.63;9.77;;;;;;;;;;5029430;28;20268;-75
2024/02/26 10:29:34;;;;;;;16.67;10.57;;;;;;;;;;5020249;28;20948;-74
2024/02/26 10:32:00;;;;;;;17.67;10.43;;;;;;;;;;5037081;28;20185;-75
2024/02/26 10:34:27;;;;;;;13.00;9.70;;;;;;;;;;5026740;28;20186;-75
2024/02/26 10:36:53;;;;;;;15.60;9.40;;;;;;;;;;5029604;28;20393;-75
2024/02/26 10:39:19;;;;;;;16.93;10.07;;;;;;;;;;5029725;28;20183;-75
2024/02/26 10:41:48;;;;;;;16.80;9.60;;;;;;;;;;5048596;28;20181;-75
2024/02/26 10:44:13;;;;;;;14.90;8.73;;;;;;;;;;5048435;28;20196;-75
2024/02/26 10:46:42;;;;;;;15.23;9.77;;;;;;;;;;5033351;28;20241;-75
2024/02/26 10:49:14;;;;;;;14.53;9.63;;;;;;;;;;5037571;28;20202;-74
2024/02/26 10:51:44;;;;;;;14.43;9.63;;;;;;;;;;5019548;28;20182;-75
2024/02/26 10:54:15;;;;;;;12.93;8.73;;;;;;;;;;5020204;28;20537;-75
2024/02/26 10:56:43;;;;;;;14.17;9.00;;;;;;;;;;5035370;28;20190;-75
2024/02/26 10:59:10;;;;;;;13.30;8.77;;;;;;;;;;5031467;28;20201;-75
2024/02/26 11:01:38;;;;;;;13.00;8.53;;;;;;;;;;5027562;28;20257;-75
2024/02/26 11:04:04;;;;;;;13.17;8.60;;;;;;;;;;5030868;28;20210;-75
2024/02/26 11:06:30;;;;;;;12.83;8.30;;;;;;;;;;5026551;28;20213;-75
2024/02/26 11:08:58;;;;;;;15.77;8.67;;;;;;;;;;5037064;28;20183;-75
2024/02/26 11:11:23;;;;;;;13.30;8.43;;;;;;;;;;5045561;28;20277;-75
2024/02/26 11:13:51;;;;;;;11.83;7.57;;;;;;;;;;5039694;28;20264;-75
2024/02/26 11:16:21;;;;;;;13.30;7.97;;;;;;;;;;5034317;28;20259;-75
2024/02/26 11:18:48;;;;;;;12.63;7.80;;;;;;;;;;5041862;28;20247;-75
2024/02/26 11:21:18;;;;;;;13.70;8.00;;;;;;;;;;5031434;28;20243;-74
2024/02/26 11:23:45;;;;;;;14.70;8.40;;;;;;;;;;5041661;28;20186;-75
2024/02/26 11:26:12;;;;;;;14.27;8.10;;;;;;;;;;5037366;28;20220;-74
2024/02/26 11:28:39;;;;;;;15.17;9.27;;;;;;;;;;5051557;28;20649;-75
2024/02/26 11:31:05;;;;;;;11.40;7.37;;;;;;;;;;5035356;28;20230;-75
2024/02/26 11:33:31;;;;;;;11.60;7.93;;;;;;;;;;5032323;28;20190;-75
2024/02/26 11:35:58;;;;;;;12.80;8.13;;;;;;;;;;5014093;28;20206;-75
2024/02/26 11:38:26;;;;;;;12.00;8.00;;;;;;;;;;5031801;28;20638;-75
2024/02/26 11:40:53;;;;;;;13.10;8.60;;;;;;;;;;5031148;28;20194;-76
2024/02/26 11:43:23;;;;;;;14.10;8.07;;;;;;;;;;5033274;28;20312;-75
2024/02/26 11:45:51;;;;;;;15.77;9.30;;;;;;;;;;5029608;28;20682;-75
2024/02/26 11:48:24;;;;;;;13.97;8.30;;;;;;;;;;5030568;28;20186;-74
2024/02/26 11:50:52;;;;;;;15.43;9.10;;;;;;;;;;5014417;28;20181;-76
2024/02/26 11:53:31;;;;;;;12.70;8.53;;;;;;;;;;5032224;28;20634;-74
2024/02/26 11:56:19;;;;;;;16.10;9.10;;;;;;;;;;5030808;28;20273;-75
2024/02/26 11:58:45;;;;;;;17.90;9.20;;;;;;;;;;5030628;28;20186;-74
2024/02/26 12:01:45;;;;;;;14.10;8.83;;;;;;;;;;5049733;28;20192;-74
2024/02/26 12:04:14;;;;;;;15.60;8.97;;;;;;;;;;5027215;28;20282;-75
2024/02/26 12:06:51;;;;;;;13.80;8.67;;;;;;;;;;5026752;28;20183;-75
2024/02/26 12:09:36;;;;;;;13.70;8.47;;;;;;;;;;5009238;28;20550;-74
2024/02/26 12:12:06;;;;;;;12.07;7.43;;;;;;;;;;5035935;28;20605;-75
2024/02/26 12:15:01;;;;;;;16.77;9.40;;;;;;;;;;5038757;28;20224;-75
2024/02/26 12:17:27;;;;;;;14.03;7.97;;;;;;;;;;5051967;28;20206;-75
2024/02/26 12:19:53;;;;;;;15.07;9.37;;;;;;;;;;5027316;28;20764;-75
2024/02/26 12:22:19;;;;;;;14.90;8.93;;;;;;;;;;5038189;28;20190;-75
2024/02/26 12:24:45;;;;;;;15.57;9.10;;;;;;;;;;5031883;28;20190;-75
2024/02/26 12:27:11;;;;;;;14.87;9.03;;;;;;;;;;5031069;28;20281;-75
2024/02/26 12:29:36;;;;;;;16.53;8.93;;;;;;;;;;5043860;28;20197;-75
2024/02/26 12:32:04;;;;;;;11.00;7.73;;;;;;;;;;5042940;28;20271;-75
2024/02/26 12:34:29;;;;;;;13.10;8.50;;;;;;;;;;5034537;28;20770;-75
2024/02/26 12:36:55;;;;;;;13.63;8.30;;;;;;;;;;5038881;28;20213;-75
2024/02/26 12:39:21;;;;;;;12.17;8.13;;;;;;;;;;5039052;28;20217;-75
2024/02/26 12:41:49;;;;;;;11.97;8.13;;;;;;;;;;5043099;28;20187;-75
2024/02/26 12:44:18;;;;;;;11.05;7.60;;;;;;;;;;5046370;28;20204;-75
2024/02/26 12:46:44;;;;;;;11.95;7.75;;;;;;;;;;5035452;28;20243;-76
2024/02/26 12:49:14;;;;;;;11.25;7.93;;;;;;;;;;5048554;28;20181;-74
2024/02/26 12:51:41;;;;;;;10.23;7.37;;;;;;;;;;5044494;28;20599;-74
2024/02/26 12:54:08;;;;;;;10.93;7.47;;;;;;;;;;5036350;28;20589;-73
2024/02/26 12:56:34;;;;;;;9.95;6.90;;;;;;;;;;5044162;28;20220;-74
2024/02/26 12:59:00;;;;;;;9.45;6.95;;;;;;;;;;5035502;28;20574;-74
2024/02/26 13:01:26;;;;;;;9.57;6.50;;;;;;;;;;5043143;28;20661;-75
2024/02/26 13:03:53;;;;;;;10.88;7.18;;;;;;;;;;5033639;28;20597;-75
2024/02/26 13:06:18;;;;;;;10.63;7.77;;;;;;;;;;5037266;28;20225;-75
2024/02/26 13:08:45;;;;;;;10.55;7.07;;;;;;;;;;5043044;28;20220;-75
2024/02/26 13:11:11;;;;;;;12.13;7.45;;;;;;;;;;5034238;28;20189;-75
2024/02/26 13:13:37;;;;;;;9.43;6.83;;;;;;;;;;5028962;28;20633;-75
2024/02/26 13:16:08;;;;;;;13.10;7.77;;;;;;;;;;5029177;28;20245;-74
2024/02/26 13:18:34;;;;;;;10.53;7.07;;;;;;;;;;5033099;28;20700;-76
2024/02/26 13:21:15;;;;;;;11.37;7.23;;;;;;;;;;5049353;28;20185;-75
2024/02/26 13:23:41;;;;;;;9.85;6.45;;;;;;;;;;5032459;28;20260;-76
2024/02/26 13:26:07;;;;;;;11.13;7.60;;;;;;;;;;5033485;28;20696;-75
2024/02/26 13:28:34;;;;;;;10.13;6.32;;;;;;;;;;5013785;28;20182;-75
2024/02/26 13:31:00;;;;;;;11.63;7.53;;;;;;;;;;5029130;28;20244;-75
2024/02/26 13:33:28;;;;;;;11.10;6.88;;;;;;;;;;5017483;28;20202;-76
2024/02/26 13:35:54;;;;;;;11.20;7.60;;;;;;;;;;5012127;28;20205;-75
2024/02/26 13:38:20;;;;;;;12.03;7.90;;;;;;;;;;5043138;28;20182;-76
2024/02/26 13:40:45;;;;;;;10.77;7.70;;;;;;;;;;5038842;28;20192;-76
2024/02/26 13:43:11;;;;;;;10.02;6.93;;;;;;;;;;5039498;28;20186;-74
2024/02/26 13:45:38;;;;;;;10.27;7.00;;;;;;;;;;5026592;28;20186;-75
2024/02/26 13:48:09;;;;;;;11.87;7.33;;;;;;;;;;5016139;28;20253;-75
2024/02/26 13:50:35;;;;;;;10.82;7.32;;;;;;;;;;5038042;28;20269;-75
2024/02/26 13:53:01;;;;;;;9.47;7.10;;;;;;;;;;5045042;28;20285;-76
2024/02/26 13:55:29;;;;;;;10.17;7.43;;;;;;;;;;5043994;28;20224;-76
2024/02/26 13:57:56;;;;;;;12.32;7.45;;;;;;;;;;5037104;28;20178;-76
2024/02/26 14:00:22;;;;;;;10.90;7.43;;;;;;;;;;5027335;28;20704;-75
2024/02/26 14:02:48;;;;;;;11.50;7.35;;;;;;;;;;5028717;28;20274;-76
2024/02/26 14:05:13;;;;;;;9.27;6.03;;;;;;;;;;5044301;28;20363;-75
2024/02/26 14:07:39;;;;;;;11.30;7.37;;;;;;;;;;5025676;28;20206;-75
2024/02/26 14:10:05;;;;;;;11.33;7.00;;;;;;;;;;5036374;28;20242;-74
2024/02/26 14:12:30;;;;;;;10.47;7.27;;;;;;;;;;5040969;28;20185;-76
2024/02/26 14:14:56;;;;;;;10.75;6.82;;;;;;;;;;5046616;28;20267;-75
2024/02/26 14:17:22;;;;;;;11.35;6.60;;;;;;;;;;5044416;28;20667;-76
2024/02/26 14:19:48;;;;;;;10.25;7.10;;;;;;;;;;5043652;28;20229;-76
2024/02/26 14:22:15;;;;;;;9.85;6.55;;;;;;;;;;5044411;28;20185;-75